sensor_id;sensor_type;location;lat;lon;timestamp;pressure;altitude;pressure_sealevel;temperature;humidity
77572;BME280;67214;47.454;18.966;2023-04-15T00:00:32;99186.31;;;5.38;85.66
77572;BME280;67214;47.454;18.966;2023-04-15T00:03:00;99193.73;;;5.39;85.64
77572;BME280;67214;47.454;18.966;2023-04-15T00:05:31;99182.03;;;5.43;85.66
77572;BME280;67214;47.454;18.966;2023-04-15T00:08:00;99185.91;;;5.50;85.32
77572;BME280;67214;47.454;18.966;2023-04-15T00:10:28;99178.72;;;5.52;85.26
77572;BME280;67214;47.454;18.966;2023-04-15T00:12:55;99176.95;;;5.58;85.28
77572;BME280;67214;47.454;18.966;2023-04-15T00:15:23;99188.52;;;5.55;85.25
77572;BME280;67214;47.454;18.966;2023-04-15T00:17:53;99191.16;;;5.55;84.97
77572;BME280;67214;47.454;18.966;2023-04-15T00:20:20;99181.72;;;5.53;85.09
77572;BME280;67214;47.454;18.966;2023-04-15T00:22:47;99192.47;;;5.55;84.96
77572;BME280;67214;47.454;18.966;2023-04-15T00:25:15;99188.66;;;5.59;84.70
77572;BME280;67214;47.454;18.966;2023-04-15T00:27:43;99189.59;;;5.58;84.71
77572;BME280;67214;47.454;18.966;2023-04-15T00:30:10;99191.18;;;5.61;84.65
77572;BME280;67214;47.454;18.966;2023-04-15T00:32:38;99187.48;;;5.69;84.27
77572;BME280;67214;47.454;18.966;2023-04-15T00:35:06;99171.11;;;5.66;84.03
77572;BME280;67214;47.454;18.966;2023-04-15T00:37:34;99177.20;;;5.72;84.03
77572;BME280;67214;47.454;18.966;2023-04-15T00:40:02;99176.63;;;5.74;83.62
77572;BME280;67214;47.454;18.966;2023-04-15T00:42:31;99176.95;;;5.75;83.86
77572;BME280;67214;47.454;18.966;2023-04-15T00:44:59;99179.12;;;5.75;83.63
77572;BME280;67214;47.454;18.966;2023-04-15T00:47:28;99172.43;;;5.77;83.58
77572;BME280;67214;47.454;18.966;2023-04-15T00:49:57;99178.30;;;5.80;83.42
77572;BME280;67214;47.454;18.966;2023-04-15T00:52:24;99168.86;;;5.78;83.57
77572;BME280;67214;47.454;18.966;2023-04-15T00:54:52;99163.70;;;5.76;83.68
77572;BME280;67214;47.454;18.966;2023-04-15T00:57:20;99164.79;;;5.85;83.83
77572;BME280;67214;47.454;18.966;2023-04-15T00:59:49;99163.73;;;5.87;83.46
77572;BME280;67214;47.454;18.966;2023-04-15T01:02:18;99163.27;;;5.88;83.56
77572;BME280;67214;47.454;18.966;2023-04-15T01:04:45;99173.31;;;5.88;83.63
77572;BME280;67214;47.454;18.966;2023-04-15T01:07:13;99176.89;;;5.87;83.83
77572;BME280;67214;47.454;18.966;2023-04-15T01:09:41;99171.16;;;5.88;83.86
77572;BME280;67214;47.454;18.966;2023-04-15T01:12:13;99164.36;;;5.91;83.83
77572;BME280;67214;47.454;18.966;2023-04-15T01:14:46;99173.58;;;5.91;83.84
77572;BME280;67214;47.454;18.966;2023-04-15T01:17:14;99164.96;;;5.94;83.82
77572;BME280;67214;47.454;18.966;2023-04-15T01:19:41;99159.70;;;5.94;83.98
77572;BME280;67214;47.454;18.966;2023-04-15T01:22:09;99159.08;;;5.96;84.01
77572;BME280;67214;47.454;18.966;2023-04-15T01:24:37;99159.68;;;6.00;84.07
77572;BME280;67214;47.454;18.966;2023-04-15T01:27:05;99160.05;;;6.01;84.14
77572;BME280;67214;47.454;18.966;2023-04-15T01:29:36;99167.47;;;6.01;83.96
77572;BME280;67214;47.454;18.966;2023-04-15T01:32:03;99166.27;;;6.05;83.82
77572;BME280;67214;47.454;18.966;2023-04-15T01:34:33;99164.11;;;6.05;83.30
77572;BME280;67214;47.454;18.966;2023-04-15T01:37:00;99166.38;;;6.04;83.50
77572;BME280;67214;47.454;18.966;2023-04-15T01:39:29;99165.06;;;6.04;83.74
77572;BME280;67214;47.454;18.966;2023-04-15T01:41:57;99166.50;;;6.08;83.35
77572;BME280;67214;47.454;18.966;2023-04-15T01:44:24;99171.29;;;6.08;83.34
77572;BME280;67214;47.454;18.966;2023-04-15T01:46:52;99166.17;;;6.07;84.04
77572;BME280;67214;47.454;18.966;2023-04-15T01:49:20;99175.83;;;6.12;84.18
77572;BME280;67214;47.454;18.966;2023-04-15T01:51:48;99183.01;;;6.16;83.46
77572;BME280;67214;47.454;18.966;2023-04-15T01:54:15;99179.80;;;6.18;83.16
77572;BME280;67214;47.454;18.966;2023-04-15T01:56:43;99163.89;;;6.19;83.71
77572;BME280;67214;47.454;18.966;2023-04-15T01:59:10;99176.21;;;6.19;83.46
77572;BME280;67214;47.454;18.966;2023-04-15T02:01:38;99182.66;;;6.20;83.27
77572;BME280;67214;47.454;18.966;2023-04-15T02:04:06;99179.17;;;6.20;83.64
77572;BME280;67214;47.454;18.966;2023-04-15T02:06:35;99184.69;;;6.17;84.07
77572;BME280;67214;47.454;18.966;2023-04-15T02:09:02;99175.73;;;6.19;83.98
77572;BME280;67214;47.454;18.966;2023-04-15T02:11:30;99186.73;;;6.19;83.97
77572;BME280;67214;47.454;18.966;2023-04-15T02:13:58;99181.11;;;6.18;84.23
77572;BME280;67214;47.454;18.966;2023-04-15T02:16:25;99186.13;;;6.21;84.40
77572;BME280;67214;47.454;18.966;2023-04-15T02:18:53;99186.13;;;6.21;84.12
77572;BME280;67214;47.454;18.966;2023-04-15T02:21:20;99189.59;;;6.21;84.21
77572;BME280;67214;47.454;18.966;2023-04-15T02:23:48;99178.70;;;6.20;84.36
77572;BME280;67214;47.454;18.966;2023-04-15T02:26:16;99180.50;;;6.20;84.62
77572;BME280;67214;47.454;18.966;2023-04-15T02:28:44;99186.27;;;6.19;84.73
77572;BME280;67214;47.454;18.966;2023-04-15T02:31:11;99184.69;;;6.17;84.84
77572;BME280;67214;47.454;18.966;2023-04-15T02:33:38;99188.16;;;6.17;85.07
77572;BME280;67214;47.454;18.966;2023-04-15T02:36:06;99186.00;;;6.17;85.16
77572;BME280;67214;47.454;18.966;2023-04-15T02:38:34;99181.22;;;6.16;85.19
77572;BME280;67214;47.454;18.966;2023-04-15T02:41:03;99182.42;;;6.18;85.34
77572;BME280;67214;47.454;18.966;2023-04-15T02:43:31;99185.90;;;6.18;85.33
77572;BME280;67214;47.454;18.966;2023-04-15T02:45:58;99190.69;;;6.19;85.31
77572;BME280;67214;47.454;18.966;2023-04-15T02:48:26;99192.34;;;6.20;85.23
77572;BME280;67214;47.454;18.966;2023-04-15T02:51:03;99193.91;;;6.22;85.27
77572;BME280;67214;47.454;18.966;2023-04-15T02:53:22;99186.86;;;6.23;85.04
77572;BME280;67214;47.454;18.966;2023-04-15T02:55:51;99193.77;;;6.24;84.98
77572;BME280;67214;47.454;18.966;2023-04-15T02:58:19;99190.79;;;6.28;84.91
77572;BME280;67214;47.454;18.966;2023-04-15T03:00:46;99187.82;;;6.27;85.00
77572;BME280;67214;47.454;18.966;2023-04-15T03:03:15;99182.41;;;6.29;85.16
77572;BME280;67214;47.454;18.966;2023-04-15T03:05:43;99182.67;;;6.31;85.13
77572;BME280;67214;47.454;18.966;2023-04-15T03:08:11;99185.30;;;6.31;85.07
77572;BME280;67214;47.454;18.966;2023-04-15T03:10:42;99180.38;;;6.32;84.98
77572;BME280;67214;47.454;18.966;2023-04-15T03:13:09;99185.17;;;6.38;85.00
77572;BME280;67214;47.454;18.966;2023-04-15T03:15:36;99183.38;;;6.39;85.02
77572;BME280;67214;47.454;18.966;2023-04-15T03:18:04;99174.16;;;6.39;85.07
77572;BME280;67214;47.454;18.966;2023-04-15T03:20:31;99185.54;;;6.39;85.09
77572;BME280;67214;47.454;18.966;2023-04-15T03:22:58;99177.13;;;6.40;84.86
77572;BME280;67214;47.454;18.966;2023-04-15T03:25:26;99182.04;;;6.44;84.78
77572;BME280;67214;47.454;18.966;2023-04-15T03:27:53;99176.44;;;6.43;84.73
77572;BME280;67214;47.454;18.966;2023-04-15T03:30:21;99173.80;;;6.43;84.80
77572;BME280;67214;47.454;18.966;2023-04-15T03:32:48;99176.07;;;6.42;84.60
77572;BME280;67214;47.454;18.966;2023-04-15T03:35:16;99163.97;;;6.40;84.67
77572;BME280;67214;47.454;18.966;2023-04-15T03:37:43;99177.13;;;6.40;84.69
77572;BME280;67214;47.454;18.966;2023-04-15T03:40:11;99183.27;;;6.35;84.46
77572;BME280;67214;47.454;18.966;2023-04-15T03:42:39;99178.58;;;6.33;84.44
77572;BME280;67214;47.454;18.966;2023-04-15T03:45:07;99166.98;;;6.30;84.55
77572;BME280;67214;47.454;18.966;2023-04-15T03:47:34;99172.02;;;6.27;84.61
77572;BME280;67214;47.454;18.966;2023-04-15T03:50:02;99165.19;;;6.30;84.63
77572;BME280;67214;47.454;18.966;2023-04-15T03:52:29;99177.77;;;6.27;84.57
77572;BME280;67214;47.454;18.966;2023-04-15T03:54:58;99169.61;;;6.24;84.59
77572;BME280;67214;47.454;18.966;2023-04-15T03:57:25;99177.64;;;6.23;84.82
77572;BME280;67214;47.454;18.966;2023-04-15T03:59:52;99173.22;;;6.23;84.96
77572;BME280;67214;47.454;18.966;2023-04-15T04:02:20;99173.33;;;6.22;84.82
77572;BME280;67214;47.454;18.966;2023-04-15T04:04:48;99175.48;;;6.22;84.73
77572;BME280;67214;47.454;18.966;2023-04-15T04:07:16;99173.45;;;6.31;84.19
77572;BME280;67214;47.454;18.966;2023-04-15T04:09:44;99179.78;;;6.29;84.20
77572;BME280;67214;47.454;18.966;2023-04-15T04:12:11;99173.45;;;6.26;84.45
77572;BME280;67214;47.454;18.966;2023-04-15T04:14:39;99174.27;;;6.32;84.72
77572;BME280;67214;47.454;18.966;2023-04-15T04:17:06;99180.84;;;6.32;84.88
77572;BME280;67214;47.454;18.966;2023-04-15T04:19:34;99176.31;;;6.34;84.91
77572;BME280;67214;47.454;18.966;2023-04-15T04:22:01;99176.31;;;6.34;85.04
77572;BME280;67214;47.454;18.966;2023-04-15T04:24:29;99177.86;;;6.42;84.86
77572;BME280;67214;47.454;18.966;2023-04-15T04:26:57;99173.80;;;6.43;84.78
77572;BME280;67214;47.454;18.966;2023-04-15T04:29:24;99173.55;;;6.46;84.41
77572;BME280;67214;47.454;18.966;2023-04-15T04:31:52;99184.78;;;6.48;84.51
77572;BME280;67214;47.454;18.966;2023-04-15T04:34:19;99183.58;;;6.52;84.58
77572;BME280;67214;47.454;18.966;2023-04-15T04:36:47;99177.25;;;6.55;84.51
77572;BME280;67214;47.454;18.966;2023-04-15T04:39:14;99180.36;;;6.54;84.53
77572;BME280;67214;47.454;18.966;2023-04-15T04:41:41;99188.86;;;6.58;84.57
77572;BME280;67214;47.454;18.966;2023-04-15T04:44:09;99185.02;;;6.68;84.11
77572;BME280;67214;47.454;18.966;2023-04-15T04:46:37;99183.08;;;6.75;84.06
77572;BME280;67214;47.454;18.966;2023-04-15T04:49:04;99186.30;;;6.79;84.01
77572;BME280;67214;47.454;18.966;2023-04-15T04:51:32;99182.45;;;6.83;84.18
77572;BME280;67214;47.454;18.966;2023-04-15T04:53:59;99185.68;;;6.86;84.04
77572;BME280;67214;47.454;18.966;2023-04-15T04:56:27;99185.68;;;6.86;83.89
77572;BME280;67214;47.454;18.966;2023-04-15T04:58:54;99182.68;;;6.85;83.79
77572;BME280;67214;47.454;18.966;2023-04-15T05:01:22;99174.66;;;6.87;83.93
77572;BME280;67214;47.454;18.966;2023-04-15T05:03:51;99176.92;;;6.91;83.64
77572;BME280;67214;47.454;18.966;2023-04-15T05:06:19;99184.42;;;7.01;83.20
77572;BME280;67214;47.454;18.966;2023-04-15T05:08:46;99181.20;;;7.04;83.37
77572;BME280;67214;47.454;18.966;2023-04-15T05:11:14;99189.58;;;7.09;83.35
77572;BME280;67214;47.454;18.966;2023-04-15T05:13:42;99188.11;;;7.16;83.14
77572;BME280;67214;47.454;18.966;2023-04-15T05:16:09;99179.36;;;7.15;82.82
77572;BME280;67214;47.454;18.966;2023-04-15T05:18:36;99188.47;;;7.17;83.11
77572;BME280;67214;47.454;18.966;2023-04-15T05:21:04;99179.34;;;7.21;83.09
77572;BME280;67214;47.454;18.966;2023-04-15T05:23:32;99185.30;;;7.28;82.96
77572;BME280;67214;47.454;18.966;2023-04-15T05:25:59;99187.04;;;7.39;82.66
77572;BME280;67214;47.454;18.966;2023-04-15T05:28:27;99195.30;;;7.45;82.53
77572;BME280;67214;47.454;18.966;2023-04-15T05:30:54;99186.86;;;7.52;82.70
77572;BME280;67214;47.454;18.966;2023-04-15T05:33:22;99186.36;;;7.58;82.63
77572;BME280;67214;47.454;18.966;2023-04-15T05:35:50;99187.63;;;7.63;81.72
77572;BME280;67214;47.454;18.966;2023-04-15T05:38:17;99193.48;;;7.67;81.85
77572;BME280;67214;47.454;18.966;2023-04-15T05:40:45;99199.96;;;7.68;82.12
77572;BME280;67214;47.454;18.966;2023-04-15T05:43:12;99200.53;;;7.72;81.93
77572;BME280;67214;47.454;18.966;2023-04-15T05:45:40;99207.23;;;7.76;81.49
77572;BME280;67214;47.454;18.966;2023-04-15T05:48:08;99204.23;;;7.75;81.29
77572;BME280;67214;47.454;18.966;2023-04-15T05:50:35;99210.04;;;7.69;80.98
77572;BME280;67214;47.454;18.966;2023-04-15T05:53:02;99214.00;;;7.69;81.16
77572;BME280;67214;47.454;18.966;2023-04-15T05:55:30;99202.91;;;7.75;81.31
77572;BME280;67214;47.454;18.966;2023-04-15T05:57:58;99213.83;;;7.76;81.80
77572;BME280;67214;47.454;18.966;2023-04-15T06:00:25;99213.08;;;7.79;81.49
77572;BME280;67214;47.454;18.966;2023-04-15T06:02:53;99211.86;;;7.83;81.56
77572;BME280;67214;47.454;18.966;2023-04-15T06:05:20;99208.36;;;7.88;80.50
77572;BME280;67214;47.454;18.966;2023-04-15T06:07:48;99220.63;;;7.99;80.60
77572;BME280;67214;47.454;18.966;2023-04-15T06:10:16;99216.23;;;8.15;80.36
77572;BME280;67214;47.454;18.966;2023-04-15T06:12:44;99208.06;;;8.33;79.94
77572;BME280;67214;47.454;18.966;2023-04-15T06:15:11;99219.52;;;8.43;79.24
77572;BME280;67214;47.454;18.966;2023-04-15T06:17:39;99222.99;;;8.68;80.12
77572;BME280;67214;47.454;18.966;2023-04-15T06:20:07;99221.83;;;8.92;78.72
77572;BME280;67214;47.454;18.966;2023-04-15T06:22:36;99219.17;;;9.01;77.95
77572;BME280;67214;47.454;18.966;2023-04-15T06:25:05;99223.32;;;9.19;77.71
77572;BME280;67214;47.454;18.966;2023-04-15T06:27:34;99224.04;;;9.40;76.46
77572;BME280;67214;47.454;18.966;2023-04-15T06:30:02;99223.89;;;9.51;75.29
77572;BME280;67214;47.454;18.966;2023-04-15T06:32:29;99220.09;;;9.83;74.63
77572;BME280;67214;47.454;18.966;2023-04-15T06:34:58;99219.36;;;9.76;74.65
77572;BME280;67214;47.454;18.966;2023-04-15T06:37:25;99220.45;;;9.84;75.08
77572;BME280;67214;47.454;18.966;2023-04-15T06:39:53;99219.96;;;9.94;74.90
77572;BME280;67214;47.454;18.966;2023-04-15T06:42:20;99216.78;;;10.04;74.47
77572;BME280;67214;47.454;18.966;2023-04-15T06:44:47;99225.31;;;9.98;74.13
77572;BME280;67214;47.454;18.966;2023-04-15T06:47:15;99222.84;;;10.19;73.26
77572;BME280;67214;47.454;18.966;2023-04-15T06:49:43;99223.91;;;10.36;72.49
77572;BME280;67214;47.454;18.966;2023-04-15T06:52:10;99224.98;;;10.66;71.72
77572;BME280;67214;47.454;18.966;2023-04-15T06:54:38;99222.40;;;10.88;71.56
77572;BME280;67214;47.454;18.966;2023-04-15T06:57:05;99222.84;;;10.97;71.98
77572;BME280;67214;47.454;18.966;2023-04-15T06:59:34;99224.70;;;11.01;70.38
77572;BME280;67214;47.454;18.966;2023-04-15T07:02:02;99224.08;;;10.89;69.77
77572;BME280;67214;47.454;18.966;2023-04-15T07:04:30;99224.61;;;10.93;69.20
77572;BME280;67214;47.454;18.966;2023-04-15T07:06:57;99220.22;;;10.84;70.00
77572;BME280;67214;47.454;18.966;2023-04-15T07:09:26;99222.75;;;11.03;70.19
77572;BME280;67214;47.454;18.966;2023-04-15T07:11:53;99237.17;;;11.18;69.60
77572;BME280;67214;47.454;18.966;2023-04-15T07:14:20;99231.98;;;11.30;69.82
77572;BME280;67214;47.454;18.966;2023-04-15T07:16:48;99238.81;;;11.50;68.23
77572;BME280;67214;47.454;18.966;2023-04-15T07:19:15;99236.58;;;11.42;66.42
77572;BME280;67214;47.454;18.966;2023-04-15T07:21:43;99240.41;;;11.43;64.58
77572;BME280;67214;47.454;18.966;2023-04-15T07:24:10;99234.98;;;11.66;65.56
77572;BME280;67214;47.454;18.966;2023-04-15T07:26:38;99243.74;;;11.77;65.53
77572;BME280;67214;47.454;18.966;2023-04-15T07:29:05;99234.76;;;11.74;64.59
77572;BME280;67214;47.454;18.966;2023-04-15T07:31:33;99236.56;;;11.95;64.77
77572;BME280;67214;47.454;18.966;2023-04-15T07:34:02;99228.28;;;11.94;64.32
77572;BME280;67214;47.454;18.966;2023-04-15T07:36:30;99232.09;;;12.17;62.42
77572;BME280;67214;47.454;18.966;2023-04-15T07:38:57;99238.80;;;12.03;62.91
77572;BME280;67214;47.454;18.966;2023-04-15T07:41:26;99232.30;;;11.98;63.30
77572;BME280;67214;47.454;18.966;2023-04-15T07:43:54;99242.16;;;11.88;63.08
77572;BME280;67214;47.454;18.966;2023-04-15T07:46:21;99236.82;;;11.48;62.10
77572;BME280;67214;47.454;18.966;2023-04-15T07:48:51;99235.28;;;11.46;61.20
77572;BME280;67214;47.454;18.966;2023-04-15T07:51:19;99241.08;;;11.45;62.45
77572;BME280;67214;47.454;18.966;2023-04-15T07:53:48;99245.34;;;11.38;63.00
77572;BME280;67214;47.454;18.966;2023-04-15T07:56:16;99237.60;;;11.27;63.29
77572;BME280;67214;47.454;18.966;2023-04-15T07:58:43;99241.14;;;11.18;62.41
77572;BME280;67214;47.454;18.966;2023-04-15T08:01:10;99246.31;;;11.37;64.16
77572;BME280;67214;47.454;18.966;2023-04-15T08:03:38;99250.12;;;11.35;62.93
77572;BME280;67214;47.454;18.966;2023-04-15T08:06:06;99258.88;;;11.31;62.66
77572;BME280;67214;47.454;18.966;2023-04-15T08:08:34;99255.26;;;11.18;62.96
77572;BME280;67214;47.454;18.966;2023-04-15T08:11:02;99249.28;;;11.16;62.46
77572;BME280;67214;47.454;18.966;2023-04-15T08:13:29;99249.67;;;11.08;63.22
77572;BME280;67214;47.454;18.966;2023-04-15T08:16:22;99255.88;;;11.30;63.30
77572;BME280;67214;47.454;18.966;2023-04-15T08:18:51;99247.60;;;11.33;63.25
77572;BME280;67214;47.454;18.966;2023-04-15T08:21:19;99256.88;;;11.47;63.40
77572;BME280;67214;47.454;18.966;2023-04-15T08:23:48;99257.48;;;11.58;62.21
77572;BME280;67214;47.454;18.966;2023-04-15T08:26:16;99266.05;;;11.84;62.25
77572;BME280;67214;47.454;18.966;2023-04-15T08:28:45;99262.20;;;11.82;62.62
77572;BME280;67214;47.454;18.966;2023-04-15T08:31:14;99271.05;;;11.38;61.52
77572;BME280;67214;47.454;18.966;2023-04-15T08:33:41;99270.47;;;11.30;62.14
77572;BME280;67214;47.454;18.966;2023-04-15T08:36:09;99269.94;;;11.13;63.06
77572;BME280;67214;47.454;18.966;2023-04-15T08:38:37;99267.14;;;11.46;62.80
77572;BME280;67214;47.454;18.966;2023-04-15T08:41:11;99270.02;;;11.48;62.63
77572;BME280;67214;47.454;18.966;2023-04-15T08:43:44;99271.26;;;11.40;62.90
77572;BME280;67214;47.454;18.966;2023-04-15T08:46:10;99272.22;;;11.53;62.46
77572;BME280;67214;47.454;18.966;2023-04-15T08:48:38;99276.69;;;11.52;62.43
77572;BME280;67214;47.454;18.966;2023-04-15T08:51:06;99271.62;;;11.45;61.82
77572;BME280;67214;47.454;18.966;2023-04-15T08:53:35;99272.05;;;11.54;62.65
77572;BME280;67214;47.454;18.966;2023-04-15T08:56:04;99273.11;;;11.44;62.51
77572;BME280;67214;47.454;18.966;2023-04-15T08:58:35;99262.19;;;11.47;62.71
77572;BME280;67214;47.454;18.966;2023-04-15T09:01:03;99275.81;;;11.48;63.03
77572;BME280;67214;47.454;18.966;2023-04-15T09:03:31;99277.32;;;11.33;64.27
77572;BME280;67214;47.454;18.966;2023-04-15T09:05:59;99279.84;;;11.38;64.15
77572;BME280;67214;47.454;18.966;2023-04-15T09:08:27;99281.73;;;11.59;63.82
77572;BME280;67214;47.454;18.966;2023-04-15T09:10:56;99281.38;;;11.58;62.96
77572;BME280;67214;47.454;18.966;2023-04-15T09:13:23;99276.37;;;11.55;64.06
77572;BME280;67214;47.454;18.966;2023-04-15T09:15:52;99279.05;;;11.42;64.20
77572;BME280;67214;47.454;18.966;2023-04-15T09:18:29;99288.86;;;11.59;65.23
77572;BME280;67214;47.454;18.966;2023-04-15T09:21:05;99278.06;;;11.74;64.65
77572;BME280;67214;47.454;18.966;2023-04-15T09:23:34;99282.47;;;11.83;63.73
77572;BME280;67214;47.454;18.966;2023-04-15T09:26:02;99279.88;;;12.09;63.29
77572;BME280;67214;47.454;18.966;2023-04-15T09:28:31;99275.54;;;12.08;62.53
77572;BME280;67214;47.454;18.966;2023-04-15T09:30:59;99284.28;;;12.00;63.22
77572;BME280;67214;47.454;18.966;2023-04-15T09:33:28;99286.94;;;11.65;62.07
77572;BME280;67214;47.454;18.966;2023-04-15T09:36:04;99286.06;;;11.60;63.70
77572;BME280;67214;47.454;18.966;2023-04-15T09:38:32;99285.23;;;11.74;63.64
77572;BME280;67214;47.454;18.966;2023-04-15T09:40:59;99291.42;;;11.82;63.13
77572;BME280;67214;47.454;18.966;2023-04-15T09:43:42;99292.03;;;12.16;64.84
77572;BME280;67214;47.454;18.966;2023-04-15T09:46:10;99285.64;;;12.52;64.71
77572;BME280;67214;47.454;18.966;2023-04-15T09:48:38;99285.39;;;13.01;61.13
77572;BME280;67214;47.454;18.966;2023-04-15T09:51:05;99281.55;;;12.91;58.97
77572;BME280;67214;47.454;18.966;2023-04-15T09:53:35;99280.47;;;13.10;58.21
77572;BME280;67214;47.454;18.966;2023-04-15T09:56:03;99286.86;;;12.91;58.54
77572;BME280;67214;47.454;18.966;2023-04-15T09:58:34;99284.30;;;12.78;58.76
77572;BME280;67214;47.454;18.966;2023-04-15T10:01:04;99297.23;;;12.43;60.46
77572;BME280;67214;47.454;18.966;2023-04-15T10:03:35;99301.73;;;12.03;63.62
77572;BME280;67214;47.454;18.966;2023-04-15T10:06:02;99314.14;;;11.49;66.40
77572;BME280;67214;47.454;18.966;2023-04-15T10:08:32;99305.19;;;11.19;67.52
77572;BME280;67214;47.454;18.966;2023-04-15T10:11:03;99303.07;;;11.36;65.89
77572;BME280;67214;47.454;18.966;2023-04-15T10:13:31;99311.36;;;11.37;64.29
77572;BME280;67214;47.454;18.966;2023-04-15T10:16:06;99306.66;;;11.45;62.57
77572;BME280;67214;47.454;18.966;2023-04-15T10:18:40;99319.67;;;11.38;62.51
77572;BME280;67214;47.454;18.966;2023-04-15T10:21:08;99309.70;;;11.09;62.95
77572;BME280;67214;47.454;18.966;2023-04-15T10:23:36;99311.69;;;11.07;63.92
77572;BME280;67214;47.454;18.966;2023-04-15T10:26:04;99310.11;;;11.45;64.40
77572;BME280;67214;47.454;18.966;2023-04-15T10:28:33;99309.27;;;11.27;64.29
77572;BME280;67214;47.454;18.966;2023-04-15T10:31:01;99309.63;;;11.46;66.14
77572;BME280;67214;47.454;18.966;2023-04-15T10:33:31;99316.73;;;11.14;65.13
77572;BME280;67214;47.454;18.966;2023-04-15T10:36:00;99307.40;;;11.10;66.88
77572;BME280;67214;47.454;18.966;2023-04-15T10:38:46;99320.62;;;11.06;66.64
77572;BME280;67214;47.454;18.966;2023-04-15T10:41:15;99324.55;;;10.65;68.71
77572;BME280;67214;47.454;18.966;2023-04-15T10:43:49;99332.69;;;10.44;69.23
77572;BME280;67214;47.454;18.966;2023-04-15T10:46:17;99338.09;;;10.39;69.80
77572;BME280;67214;47.454;18.966;2023-04-15T10:48:50;99343.20;;;10.27;69.28
77572;BME280;67214;47.454;18.966;2023-04-15T10:51:29;99319.85;;;10.49;69.09
77572;BME280;67214;47.454;18.966;2023-04-15T10:54:00;99337.22;;;10.48;67.58
77572;BME280;67214;47.454;18.966;2023-04-15T10:56:28;99331.83;;;10.30;68.33
77572;BME280;67214;47.454;18.966;2023-04-15T10:58:58;99338.70;;;10.46;69.28
77572;BME280;67214;47.454;18.966;2023-04-15T11:04:19;99342.62;;;10.42;68.87
77572;BME280;67214;47.454;18.966;2023-04-15T11:06:44;99340.83;;;10.56;67.87
77572;BME280;67214;47.454;18.966;2023-04-15T11:09:31;99339.42;;;10.62;70.39
77572;BME280;67214;47.454;18.966;2023-04-15T11:12:07;99339.92;;;10.98;69.64
77572;BME280;67214;47.454;18.966;2023-04-15T11:14:39;99343.34;;;11.04;67.92
77572;BME280;67214;47.454;18.966;2023-04-15T11:17:08;99338.55;;;10.94;68.94
77572;BME280;67214;47.454;18.966;2023-04-15T11:19:37;99330.10;;;10.95;68.78
77572;BME280;67214;47.454;18.966;2023-04-15T11:22:09;99337.23;;;11.22;68.86
77572;BME280;67214;47.454;18.966;2023-04-15T11:24:47;99334.00;;;11.28;68.95
77572;BME280;67214;47.454;18.966;2023-04-15T11:27:22;99329.70;;;11.17;67.58
77572;BME280;67214;47.454;18.966;2023-04-15T11:29:50;99335.37;;;11.32;67.50
77572;BME280;67214;47.454;18.966;2023-04-15T11:32:18;99329.75;;;11.48;65.87
77572;BME280;67214;47.454;18.966;2023-04-15T11:34:47;99336.55;;;11.19;65.94
77572;BME280;67214;47.454;18.966;2023-04-15T11:37:14;99325.95;;;11.37;65.67
77572;BME280;67214;47.454;18.966;2023-04-15T11:39:42;99337.64;;;11.58;66.80
77572;BME280;67214;47.454;18.966;2023-04-15T11:42:18;99339.67;;;11.46;67.80
77572;BME280;67214;47.454;18.966;2023-04-15T11:44:46;99336.25;;;11.36;68.00
77572;BME280;67214;47.454;18.966;2023-04-15T11:47:23;99339.48;;;11.30;67.90
77572;BME280;67214;47.454;18.966;2023-04-15T11:49:50;99339.49;;;11.44;67.14
77572;BME280;67214;47.454;18.966;2023-04-15T11:52:18;99342.55;;;11.66;67.12
77572;BME280;67214;47.454;18.966;2023-04-15T11:54:45;99329.73;;;11.76;66.12
77572;BME280;67214;47.454;18.966;2023-04-15T11:57:13;99347.81;;;11.62;64.77
77572;BME280;67214;47.454;18.966;2023-04-15T11:59:42;99347.63;;;11.60;65.20
77572;BME280;67214;47.454;18.966;2023-04-15T12:02:11;99339.69;;;11.74;65.84
77572;BME280;67214;47.454;18.966;2023-04-15T12:04:39;99341.27;;;11.84;65.60
77572;BME280;67214;47.454;18.966;2023-04-15T12:07:07;99342.72;;;11.96;63.89
77572;BME280;67214;47.454;18.966;2023-04-15T12:09:36;99336.52;;;11.92;62.83
77572;BME280;67214;47.454;18.966;2023-04-15T12:12:05;99349.95;;;11.73;63.73
77572;BME280;67214;47.454;18.966;2023-04-15T12:14:33;99344.94;;;11.42;65.47
77572;BME280;67214;47.454;18.966;2023-04-15T12:17:04;99341.39;;;11.38;65.76
77572;BME280;67214;47.454;18.966;2023-04-15T12:19:36;99345.29;;;11.43;65.83
77572;BME280;67214;47.454;18.966;2023-04-15T12:22:07;99359.66;;;11.37;65.44
77572;BME280;67214;47.454;18.966;2023-04-15T12:24:37;99346.08;;;11.40;66.20
77572;BME280;67214;47.454;18.966;2023-04-15T12:27:09;99338.39;;;11.78;66.02
77572;BME280;67214;47.454;18.966;2023-04-15T12:29:39;99333.58;;;11.77;64.80
77572;BME280;67214;47.454;18.966;2023-04-15T12:32:13;99343.16;;;11.92;64.60
77572;BME280;67214;47.454;18.966;2023-04-15T12:34:53;99342.02;;;12.12;63.64
77572;BME280;67214;47.454;18.966;2023-04-15T12:37:18;99343.63;;;12.27;63.04
77572;BME280;67214;47.454;18.966;2023-04-15T12:39:47;99348.83;;;12.32;63.32
77572;BME280;67214;47.454;18.966;2023-04-15T12:42:16;99357.02;;;12.17;62.91
77572;BME280;67214;47.454;18.966;2023-04-15T12:44:43;99351.28;;;12.08;63.12
77572;BME280;67214;47.454;18.966;2023-04-15T12:47:12;99345.37;;;11.96;63.73
77572;BME280;67214;47.454;18.966;2023-04-15T12:49:39;99357.67;;;12.37;62.58
77572;BME280;67214;47.454;18.966;2023-04-15T12:52:10;99356.84;;;12.58;61.80
77572;BME280;67214;47.454;18.966;2023-04-15T12:54:37;99354.38;;;12.39;62.59
77572;BME280;67214;47.454;18.966;2023-04-15T12:57:06;99359.79;;;12.51;61.36
77572;BME280;67214;47.454;18.966;2023-04-15T12:59:35;99364.36;;;12.63;61.86
77572;BME280;67214;47.454;18.966;2023-04-15T13:02:04;99362.66;;;12.57;61.26
77572;BME280;67214;47.454;18.966;2023-04-15T13:04:31;99359.33;;;12.59;61.38